sensor_id;sensor_type;location;lat;lon;timestamp;temperature;humidity
32660;DHT22;19064;47.912;12.308;2023-07-13T00:02:06;17.90;99.90
32660;DHT22;19064;47.912;12.308;2023-07-13T00:04:33;17.80;99.90
32660;DHT22;19064;47.912;12.308;2023-07-13T00:07:00;17.80;99.90
32660;DHT22;19064;47.912;12.308;2023-07-13T00:09:28;17.80;99.90
32660;DHT22;19064;47.912;12.308;2023-07-13T00:11:56;17.90;99.90
32660;DHT22;19064;47.912;12.308;2023-07-13T00:14:24;17.90;99.90
32660;DHT22;19064;47.912;12.308;2023-07-13T00:16:51;17.90;99.90
32660;DHT22;19064;47.912;12.308;2023-07-13T00:19:20;17.90;99.90
32660;DHT22;19064;47.912;12.308;2023-07-13T00:21:47;17.80;99.90
32660;DHT22;19064;47.912;12.308;2023-07-13T00:24:16;17.80;99.90
32660;DHT22;19064;47.912;12.308;2023-07-13T00:26:48;17.80;99.90
32660;DHT22;19064;47.912;12.308;2023-07-13T00:29:15;18.00;99.90
32660;DHT22;19064;47.912;12.308;2023-07-13T00:31:43;18.00;99.90
32660;DHT22;19064;47.912;12.308;2023-07-13T00:34:10;18.20;99.90
32660;DHT22;19064;47.912;12.308;2023-07-13T00:36:38;18.40;99.90
32660;DHT22;19064;47.912;12.308;2023-07-13T00:39:05;18.30;99.90
32660;DHT22;19064;47.912;12.308;2023-07-13T00:41:32;18.10;99.90
32660;DHT22;19064;47.912;12.308;2023-07-13T00:43:59;18.00;99.90
32660;DHT22;19064;47.912;12.308;2023-07-13T00:46:28;18.00;99.90
32660;DHT22;19064;47.912;12.308;2023-07-13T00:48:57;17.90;99.90
32660;DHT22;19064;47.912;12.308;2023-07-13T00:51:32;17.90;99.90
32660;DHT22;19064;47.912;12.308;2023-07-13T00:54:04;17.90;99.90
32660;DHT22;19064;47.912;12.308;2023-07-13T00:56:33;18.10;99.90
32660;DHT22;19064;47.912;12.308;2023-07-13T00:59:02;18.10;99.90
32660;DHT22;19064;47.912;12.308;2023-07-13T01:01:30;18.10;99.90
32660;DHT22;19064;47.912;12.308;2023-07-13T01:03:56;18.20;99.90
32660;DHT22;19064;47.912;12.308;2023-07-13T01:06:23;18.10;99.90
32660;DHT22;19064;47.912;12.308;2023-07-13T01:08:50;18.20;99.90
32660;DHT22;19064;47.912;12.308;2023-07-13T01:11:20;18.20;99.90
32660;DHT22;19064;47.912;12.308;2023-07-13T01:13:47;18.10;99.90
32660;DHT22;19064;47.912;12.308;2023-07-13T01:16:25;18.20;99.90
32660;DHT22;19064;47.912;12.308;2023-07-13T01:18:54;18.20;99.90
32660;DHT22;19064;47.912;12.308;2023-07-13T01:21:25;18.30;99.90
32660;DHT22;19064;47.912;12.308;2023-07-13T01:23:52;18.50;99.90
32660;DHT22;19064;47.912;12.308;2023-07-13T01:26:20;18.50;99.90
32660;DHT22;19064;47.912;12.308;2023-07-13T01:28:46;18.40;99.90
32660;DHT22;19064;47.912;12.308;2023-07-13T01:31:13;18.30;99.90
32660;DHT22;19064;47.912;12.308;2023-07-13T01:33:41;18.40;99.90
32660;DHT22;19064;47.912;12.308;2023-07-13T01:36:09;18.50;99.90
32660;DHT22;19064;47.912;12.308;2023-07-13T01:38:37;18.40;99.90
32660;DHT22;19064;47.912;12.308;2023-07-13T01:41:04;18.50;99.90
32660;DHT22;19064;47.912;12.308;2023-07-13T01:43:31;18.50;99.90
32660;DHT22;19064;47.912;12.308;2023-07-13T01:45:58;18.40;99.90
32660;DHT22;19064;47.912;12.308;2023-07-13T01:48:25;18.50;99.90
32660;DHT22;19064;47.912;12.308;2023-07-13T01:50:52;18.30;99.90
32660;DHT22;19064;47.912;12.308;2023-07-13T01:53:19;18.20;99.90
32660;DHT22;19064;47.912;12.308;2023-07-13T01:55:47;18.00;99.90
32660;DHT22;19064;47.912;12.308;2023-07-13T01:58:14;17.80;99.90
32660;DHT22;19064;47.912;12.308;2023-07-13T02:00:41;17.80;99.90
32660;DHT22;19064;47.912;12.308;2023-07-13T02:03:08;17.80;99.90
32660;DHT22;19064;47.912;12.308;2023-07-13T02:05:35;17.70;99.90
32660;DHT22;19064;47.912;12.308;2023-07-13T02:08:02;17.70;99.90
32660;DHT22;19064;47.912;12.308;2023-07-13T02:10:29;17.70;99.90
32660;DHT22;19064;47.912;12.308;2023-07-13T02:12:57;17.70;99.90
32660;DHT22;19064;47.912;12.308;2023-07-13T02:15:24;17.90;99.90
32660;DHT22;19064;47.912;12.308;2023-07-13T02:17:51;17.80;99.90
32660;DHT22;19064;47.912;12.308;2023-07-13T02:20:18;17.70;99.90
32660;DHT22;19064;47.912;12.308;2023-07-13T02:22:45;17.70;99.90
32660;DHT22;19064;47.912;12.308;2023-07-13T02:25:11;17.60;99.90
32660;DHT22;19064;47.912;12.308;2023-07-13T02:27:39;17.70;99.90
32660;DHT22;19064;47.912;12.308;2023-07-13T02:30:10;17.80;99.90
32660;DHT22;19064;47.912;12.308;2023-07-13T02:32:37;17.70;99.90
32660;DHT22;19064;47.912;12.308;2023-07-13T02:35:05;17.70;99.90
32660;DHT22;19064;47.912;12.308;2023-07-13T02:37:31;17.60;99.90
32660;DHT22;19064;47.912;12.308;2023-07-13T02:39:58;17.90;99.90
32660;DHT22;19064;47.912;12.308;2023-07-13T02:42:25;17.90;99.90
32660;DHT22;19064;47.912;12.308;2023-07-13T02:44:52;17.80;99.90
32660;DHT22;19064;47.912;12.308;2023-07-13T02:47:20;17.80;99.90
32660;DHT22;19064;47.912;12.308;2023-07-13T02:49:47;17.90;99.90
32660;DHT22;19064;47.912;12.308;2023-07-13T02:52:14;17.80;99.90
32660;DHT22;19064;47.912;12.308;2023-07-13T02:54:40;17.70;99.90
32660;DHT22;19064;47.912;12.308;2023-07-13T02:57:07;17.60;99.90
32660;DHT22;19064;47.912;12.308;2023-07-13T02:59:34;17.60;99.90
32660;DHT22;19064;47.912;12.308;2023-07-13T03:02:01;17.90;99.90
32660;DHT22;19064;47.912;12.308;2023-07-13T03:04:29;18.00;99.90
32660;DHT22;19064;47.912;12.308;2023-07-13T03:06:56;17.90;99.90
32660;DHT22;19064;47.912;12.308;2023-07-13T03:09:23;18.10;99.90
32660;DHT22;19064;47.912;12.308;2023-07-13T03:11:52;18.30;99.90
32660;DHT22;19064;47.912;12.308;2023-07-13T03:14:19;18.20;99.90
32660;DHT22;19064;47.912;12.308;2023-07-13T03:16:46;18.00;99.90
32660;DHT22;19064;47.912;12.308;2023-07-13T03:19:12;18.00;99.90
32660;DHT22;19064;47.912;12.308;2023-07-13T03:21:41;18.00;99.90
32660;DHT22;19064;47.912;12.308;2023-07-13T03:24:07;18.00;99.90
32660;DHT22;19064;47.912;12.308;2023-07-13T03:26:34;17.90;99.90
32660;DHT22;19064;47.912;12.308;2023-07-13T03:29:01;18.00;99.90
32660;DHT22;19064;47.912;12.308;2023-07-13T03:31:33;18.10;99.90
32660;DHT22;19064;47.912;12.308;2023-07-13T03:34:00;18.00;99.90
32660;DHT22;19064;47.912;12.308;2023-07-13T03:36:29;17.80;99.90
32660;DHT22;19064;47.912;12.308;2023-07-13T03:38:59;18.00;99.90
32660;DHT22;19064;47.912;12.308;2023-07-13T03:41:26;18.10;99.90
32660;DHT22;19064;47.912;12.308;2023-07-13T03:43:53;18.00;99.90
32660;DHT22;19064;47.912;12.308;2023-07-13T03:46:20;18.10;99.90
32660;DHT22;19064;47.912;12.308;2023-07-13T03:48:47;17.90;99.90
32660;DHT22;19064;47.912;12.308;2023-07-13T03:51:17;18.00;99.90
32660;DHT22;19064;47.912;12.308;2023-07-13T03:53:45;17.90;99.90
32660;DHT22;19064;47.912;12.308;2023-07-13T03:56:15;18.00;99.90
32660;DHT22;19064;47.912;12.308;2023-07-13T03:58:44;18.20;99.90
32660;DHT22;19064;47.912;12.308;2023-07-13T04:01:14;18.20;99.90
32660;DHT22;19064;47.912;12.308;2023-07-13T04:03:41;18.10;99.90
32660;DHT22;19064;47.912;12.308;2023-07-13T04:06:18;18.30;99.90
32660;DHT22;19064;47.912;12.308;2023-07-13T04:08:47;18.40;99.90
32660;DHT22;19064;47.912;12.308;2023-07-13T04:11:17;18.40;99.90
32660;DHT22;19064;47.912;12.308;2023-07-13T04:13:44;18.20;99.90
32660;DHT22;19064;47.912;12.308;2023-07-13T04:16:11;18.50;99.90
32660;DHT22;19064;47.912;12.308;2023-07-13T04:18:38;18.50;99.90
32660;DHT22;19064;47.912;12.308;2023-07-13T04:21:08;18.30;99.90
32660;DHT22;19064;47.912;12.308;2023-07-13T04:23:36;18.30;99.90
32660;DHT22;19064;47.912;12.308;2023-07-13T04:26:04;18.30;99.90
32660;DHT22;19064;47.912;12.308;2023-07-13T04:28:33;18.40;99.90
32660;DHT22;19064;47.912;12.308;2023-07-13T04:31:01;18.30;99.90
32660;DHT22;19064;47.912;12.308;2023-07-13T04:33:30;18.10;99.90
32660;DHT22;19064;47.912;12.308;2023-07-13T04:35:57;18.20;99.90
32660;DHT22;19064;47.912;12.308;2023-07-13T04:38:26;18.20;99.90
32660;DHT22;19064;47.912;12.308;2023-07-13T04:40:55;18.30;99.90
32660;DHT22;19064;47.912;12.308;2023-07-13T04:43:22;18.20;99.90
32660;DHT22;19064;47.912;12.308;2023-07-13T04:45:51;18.00;99.90
32660;DHT22;19064;47.912;12.308;2023-07-13T04:48:19;18.10;99.90
32660;DHT22;19064;47.912;12.308;2023-07-13T04:50:47;18.10;99.90
32660;DHT22;19064;47.912;12.308;2023-07-13T04:53:15;18.00;99.90
32660;DHT22;19064;47.912;12.308;2023-07-13T04:55:42;18.00;99.90
32660;DHT22;19064;47.912;12.308;2023-07-13T04:58:08;18.00;99.90
32660;DHT22;19064;47.912;12.308;2023-07-13T05:00:36;17.90;99.90
32660;DHT22;19064;47.912;12.308;2023-07-13T05:03:06;17.90;99.90
32660;DHT22;19064;47.912;12.308;2023-07-13T05:05:36;17.80;99.90
32660;DHT22;19064;47.912;12.308;2023-07-13T05:08:03;17.80;99.90
32660;DHT22;19064;47.912;12.308;2023-07-13T05:10:30;17.80;99.90
32660;DHT22;19064;47.912;12.308;2023-07-13T05:12:57;17.80;99.90
32660;DHT22;19064;47.912;12.308;2023-07-13T05:15:24;17.70;99.90
32660;DHT22;19064;47.912;12.308;2023-07-13T05:17:51;17.60;99.90
32660;DHT22;19064;47.912;12.308;2023-07-13T05:20:19;17.60;99.90
32660;DHT22;19064;47.912;12.308;2023-07-13T05:22:46;17.70;99.90
32660;DHT22;19064;47.912;12.308;2023-07-13T05:25:13;17.50;99.90
32660;DHT22;19064;47.912;12.308;2023-07-13T05:27:40;17.20;99.90
32660;DHT22;19064;47.912;12.308;2023-07-13T05:30:09;17.30;99.90
32660;DHT22;19064;47.912;12.308;2023-07-13T05:32:37;17.20;99.90
32660;DHT22;19064;47.912;12.308;2023-07-13T05:35:04;17.20;99.90
32660;DHT22;19064;47.912;12.308;2023-07-13T05:37:33;17.20;99.90
32660;DHT22;19064;47.912;12.308;2023-07-13T05:40:00;17.30;99.90
32660;DHT22;19064;47.912;12.308;2023-07-13T05:42:27;17.20;99.90
32660;DHT22;19064;47.912;12.308;2023-07-13T05:44:56;17.20;99.90
32660;DHT22;19064;47.912;12.308;2023-07-13T05:47:23;17.30;99.90
32660;DHT22;19064;47.912;12.308;2023-07-13T05:49:50;17.30;99.90
32660;DHT22;19064;47.912;12.308;2023-07-13T05:52:16;17.50;99.90
32660;DHT22;19064;47.912;12.308;2023-07-13T05:54:44;17.20;99.90
32660;DHT22;19064;47.912;12.308;2023-07-13T05:57:11;17.30;99.90
32660;DHT22;19064;47.912;12.308;2023-07-13T05:59:38;17.50;99.90
32660;DHT22;19064;47.912;12.308;2023-07-13T06:02:05;17.70;99.90
32660;DHT22;19064;47.912;12.308;2023-07-13T06:04:32;17.70;99.90
32660;DHT22;19064;47.912;12.308;2023-07-13T06:06:59;18.00;99.90
32660;DHT22;19064;47.912;12.308;2023-07-13T06:09:26;17.80;99.90
32660;DHT22;19064;47.912;12.308;2023-07-13T06:11:54;18.00;99.90
32660;DHT22;19064;47.912;12.308;2023-07-13T06:14:21;17.70;99.90
32660;DHT22;19064;47.912;12.308;2023-07-13T06:16:48;17.60;99.90
32660;DHT22;19064;47.912;12.308;2023-07-13T06:19:15;17.80;99.90
32660;DHT22;19064;47.912;12.308;2023-07-13T06:21:42;17.80;99.90
32660;DHT22;19064;47.912;12.308;2023-07-13T06:24:08;17.90;99.90
32660;DHT22;19064;47.912;12.308;2023-07-13T06:26:35;17.70;99.90
32660;DHT22;19064;47.912;12.308;2023-07-13T06:29:04;17.80;99.90
32660;DHT22;19064;47.912;12.308;2023-07-13T06:31:31;18.00;99.90
32660;DHT22;19064;47.912;12.308;2023-07-13T06:33:58;17.90;99.90
32660;DHT22;19064;47.912;12.308;2023-07-13T06:36:25;17.80;99.90
32660;DHT22;19064;47.912;12.308;2023-07-13T06:38:52;17.90;99.90
32660;DHT22;19064;47.912;12.308;2023-07-13T06:41:19;17.80;99.90
32660;DHT22;19064;47.912;12.308;2023-07-13T06:43:47;17.80;99.90
32660;DHT22;19064;47.912;12.308;2023-07-13T06:46:15;17.90;99.90
32660;DHT22;19064;47.912;12.308;2023-07-13T06:48:42;17.90;99.90
32660;DHT22;19064;47.912;12.308;2023-07-13T06:51:09;18.10;99.90
32660;DHT22;19064;47.912;12.308;2023-07-13T06:53:36;18.20;99.90
32660;DHT22;19064;47.912;12.308;2023-07-13T06:56:04;18.30;99.90
32660;DHT22;19064;47.912;12.308;2023-07-13T06:58:33;18.30;99.90
32660;DHT22;19064;47.912;12.308;2023-07-13T07:01:00;18.20;99.90
32660;DHT22;19064;47.912;12.308;2023-07-13T07:03:29;18.10;99.90
32660;DHT22;19064;47.912;12.308;2023-07-13T07:06:00;17.90;99.90
32660;DHT22;19064;47.912;12.308;2023-07-13T07:08:27;18.00;99.90
32660;DHT22;19064;47.912;12.308;2023-07-13T07:10:54;18.00;99.90
32660;DHT22;19064;47.912;12.308;2023-07-13T07:13:20;17.90;99.90
32660;DHT22;19064;47.912;12.308;2023-07-13T07:15:47;17.90;99.90
32660;DHT22;19064;47.912;12.308;2023-07-13T07:18:16;18.00;99.90
32660;DHT22;19064;47.912;12.308;2023-07-13T07:20:44;18.10;99.90
32660;DHT22;19064;47.912;12.308;2023-07-13T07:23:10;18.40;99.90
32660;DHT22;19064;47.912;12.308;2023-07-13T07:25:37;18.50;99.90
32660;DHT22;19064;47.912;12.308;2023-07-13T07:28:07;18.60;99.90
32660;DHT22;19064;47.912;12.308;2023-07-13T07:30:34;18.60;99.90
32660;DHT22;19064;47.912;12.308;2023-07-13T07:33:01;18.70;99.90
32660;DHT22;19064;47.912;12.308;2023-07-13T07:35:27;18.60;99.90
32660;DHT22;19064;47.912;12.308;2023-07-13T07:37:55;18.80;99.90
32660;DHT22;19064;47.912;12.308;2023-07-13T07:40:22;18.80;99.90
32660;DHT22;19064;47.912;12.308;2023-07-13T07:42:49;18.90;99.90
32660;DHT22;19064;47.912;12.308;2023-07-13T07:45:16;19.00;99.90
32660;DHT22;19064;47.912;12.308;2023-07-13T07:47:42;19.10;99.90
32660;DHT22;19064;47.912;12.308;2023-07-13T07:50:09;19.10;99.90
32660;DHT22;19064;47.912;12.308;2023-07-13T07:52:36;19.20;99.90
32660;DHT22;19064;47.912;12.308;2023-07-13T07:55:07;19.30;99.90
32660;DHT22;19064;47.912;12.308;2023-07-13T07:57:34;19.20;99.90
32660;DHT22;19064;47.912;12.308;2023-07-13T08:00:00;19.00;99.90
32660;DHT22;19064;47.912;12.308;2023-07-13T08:02:27;18.90;99.90
32660;DHT22;19064;47.912;12.308;2023-07-13T08:04:54;19.20;99.90
32660;DHT22;19064;47.912;12.308;2023-07-13T08:07:21;19.40;99.90
32660;DHT22;19064;47.912;12.308;2023-07-13T08:09:52;19.40;99.90
32660;DHT22;19064;47.912;12.308;2023-07-13T08:12:20;19.50;99.90
32660;DHT22;19064;47.912;12.308;2023-07-13T08:14:50;19.50;99.90
32660;DHT22;19064;47.912;12.308;2023-07-13T08:17:19;19.40;99.90
32660;DHT22;19064;47.912;12.308;2023-07-13T08:19:45;19.30;99.90
32660;DHT22;19064;47.912;12.308;2023-07-13T08:22:12;19.30;99.90
32660;DHT22;19064;47.912;12.308;2023-07-13T08:24:39;19.30;99.90
32660;DHT22;19064;47.912;12.308;2023-07-13T08:27:07;19.60;99.90
32660;DHT22;19064;47.912;12.308;2023-07-13T08:29:35;19.70;99.90
32660;DHT22;19064;47.912;12.308;2023-07-13T08:32:04;19.80;99.90
32660;DHT22;19064;47.912;12.308;2023-07-13T08:34:34;20.00;99.90
32660;DHT22;19064;47.912;12.308;2023-07-13T08:37:01;20.00;99.90
32660;DHT22;19064;47.912;12.308;2023-07-13T08:39:29;20.10;99.90
32660;DHT22;19064;47.912;12.308;2023-07-13T08:42:00;20.20;99.90
32660;DHT22;19064;47.912;12.308;2023-07-13T08:44:47;20.10;99.90
32660;DHT22;19064;47.912;12.308;2023-07-13T08:47:17;20.10;99.90
32660;DHT22;19064;47.912;12.308;2023-07-13T08:49:45;20.00;99.90
32660;DHT22;19064;47.912;12.308;2023-07-13T08:52:17;19.80;99.90
32660;DHT22;19064;47.912;12.308;2023-07-13T08:54:50;20.00;99.90
32660;DHT22;19064;47.912;12.308;2023-07-13T08:57:20;19.90;99.90
32660;DHT22;19064;47.912;12.308;2023-07-13T08:59:49;19.80;99.90
32660;DHT22;19064;47.912;12.308;2023-07-13T09:02:23;20.00;99.90
32660;DHT22;19064;47.912;12.308;2023-07-13T09:04:54;20.10;99.90
32660;DHT22;19064;47.912;12.308;2023-07-13T09:07:32;20.40;99.90
32660;DHT22;19064;47.912;12.308;2023-07-13T09:10:11;20.30;99.90
32660;DHT22;19064;47.912;12.308;2023-07-13T09:12:47;20.50;99.90
32660;DHT22;19064;47.912;12.308;2023-07-13T09:15:27;20.30;99.90
32660;DHT22;19064;47.912;12.308;2023-07-13T09:18:00;20.40;99.90
32660;DHT22;19064;47.912;12.308;2023-07-13T09:20:31;20.40;99.90
32660;DHT22;19064;47.912;12.308;2023-07-13T09:23:02;20.40;99.90
32660;DHT22;19064;47.912;12.308;2023-07-13T09:25:31;20.30;99.90
32660;DHT22;19064;47.912;12.308;2023-07-13T09:28:02;20.40;99.90
32660;DHT22;19064;47.912;12.308;2023-07-13T09:30:39;20.30;99.90
32660;DHT22;19064;47.912;12.308;2023-07-13T09:33:09;20.40;99.90
32660;DHT22;19064;47.912;12.308;2023-07-13T09:35:36;20.50;99.90
32660;DHT22;19064;47.912;12.308;2023-07-13T09:38:11;20.40;99.90
32660;DHT22;19064;47.912;12.308;2023-07-13T09:40:46;20.50;99.90
32660;DHT22;19064;47.912;12.308;2023-07-13T09:43:17;20.40;99.90
32660;DHT22;19064;47.912;12.308;2023-07-13T09:45:47;20.40;99.90
32660;DHT22;19064;47.912;12.308;2023-07-13T09:48:15;20.40;99.90
32660;DHT22;19064;47.912;12.308;2023-07-13T09:50:43;20.40;99.90
32660;DHT22;19064;47.912;12.308;2023-07-13T09:53:14;20.20;99.90
32660;DHT22;19064;47.912;12.308;2023-07-13T09:55:42;20.20;99.90
32660;DHT22;19064;47.912;12.308;2023-07-13T09:58:12;20.10;99.90
32660;DHT22;19064;47.912;12.308;2023-07-13T10:00:40;20.00;99.90
32660;DHT22;19064;47.912;12.308;2023-07-13T10:03:17;19.90;99.90
32660;DHT22;19064;47.912;12.308;2023-07-13T10:05:47;19.90;99.90
32660;DHT22;19064;47.912;12.308;2023-07-13T10:08:18;19.80;99.90
32660;DHT22;19064;47.912;12.308;2023-07-13T10:10:47;19.70;99.90
32660;DHT22;19064;47.912;12.308;2023-07-13T10:13:34;19.80;99.90
32660;DHT22;19064;47.912;12.308;2023-07-13T10:16:03;19.90;99.90
32660;DHT22;19064;47.912;12.308;2023-07-13T10:18:38;19.90;99.90
32660;DHT22;19064;47.912;12.308;2023-07-13T10:21:14;20.00;99.90
32660;DHT22;19064;47.912;12.308;2023-07-13T10:23:42;20.00;99.90
32660;DHT22;19064;47.912;12.308;2023-07-13T10:26:16;20.10;99.90
32660;DHT22;19064;47.912;12.308;2023-07-13T10:28:45;20.20;99.90
32660;DHT22;19064;47.912;12.308;2023-07-13T10:31:15;20.30;99.90
32660;DHT22;19064;47.912;12.308;2023-07-13T10:33:44;20.40;99.90
32660;DHT22;19064;47.912;12.308;2023-07-13T10:36:16;20.40;99.90
32660;DHT22;19064;47.912;12.308;2023-07-13T10:38:44;20.20;99.90
32660;DHT22;19064;47.912;12.308;2023-07-13T10:41:17;20.20;99.90
32660;DHT22;19064;47.912;12.308;2023-07-13T10:43:47;20.20;99.90
32660;DHT22;19064;47.912;12.308;2023-07-13T10:46:18;20.10;99.90
32660;DHT22;19064;47.912;12.308;2023-07-13T10:48:51;19.90;99.90
32660;DHT22;19064;47.912;12.308;2023-07-13T10:51:20;19.90;99.90
32660;DHT22;19064;47.912;12.308;2023-07-13T10:54:10;19.80;99.90
32660;DHT22;19064;47.912;12.308;2023-07-13T10:56:39;19.90;99.90
32660;DHT22;19064;47.912;12.308;2023-07-13T10:59:11;19.60;99.90
32660;DHT22;19064;47.912;12.308;2023-07-13T11:14:31;19.50;99.90
32660;DHT22;19064;47.912;12.308;2023-07-13T11:17:24;19.50;99.90
32660;DHT22;19064;47.912;12.308;2023-07-13T11:19:52;19.50;99.90
32660;DHT22;19064;47.912;12.308;2023-07-13T11:22:24;19.40;99.90
32660;DHT22;19064;47.912;12.308;2023-07-13T11:24:56;19.40;99.90
32660;DHT22;19064;47.912;12.308;2023-07-13T11:27:36;19.40;99.90
32660;DHT22;19064;47.912;12.308;2023-07-13T11:30:31;19.40;99.90
32660;DHT22;19064;47.912;12.308;2023-07-13T11:33:10;19.50;99.90
32660;DHT22;19064;47.912;12.308;2023-07-13T11:35:45;19.50;99.90
32660;DHT22;19064;47.912;12.308;2023-07-13T11:38:17;19.60;99.90
32660;DHT22;19064;47.912;12.308;2023-07-13T11:40:45;19.60;99.90
32660;DHT22;19064;47.912;12.308;2023-07-13T11:43:15;19.70;99.90
32660;DHT22;19064;47.912;12.308;2023-07-13T11:45:43;19.70;99.90
32660;DHT22;19064;47.912;12.308;2023-07-13T11:48:24;19.90;99.90
32660;DHT22;19064;47.912;12.308;2023-07-13T11:51:00;19.60;99.90
32660;DHT22;19064;47.912;12.308;2023-07-13T11:53:44;19.70;99.90
32660;DHT22;19064;47.912;12.308;2023-07-13T11:56:13;19.90;99.90
32660;DHT22;19064;47.912;12.308;2023-07-13T11:58:47;19.60;99.90
32660;DHT22;19064;47.912;12.308;2023-07-13T12:01:26;19.60;99.90
32660;DHT22;19064;47.912;12.308;2023-07-13T12:03:59;19.30;99.90
32660;DHT22;19064;47.912;12.308;2023-07-13T12:06:28;19.50;99.90
32660;DHT22;19064;47.912;12.308;2023-07-13T12:08:58;19.20;99.90
32660;DHT22;19064;47.912;12.308;2023-07-13T12:11:30;18.90;99.90
32660;DHT22;19064;47.912;12.308;2023-07-13T12:14:05;19.10;99.90
32660;DHT22;19064;47.912;12.308;2023-07-13T12:16:38;19.30;99.90
32660;DHT22;19064;47.912;12.308;2023-07-13T12:19:09;19.60;99.90
32660;DHT22;19064;47.912;12.308;2023-07-13T12:21:41;19.30;99.90
32660;DHT22;19064;47.912;12.308;2023-07-13T12:24:14;19.80;99.90
32660;DHT22;19064;47.912;12.308;2023-07-13T12:26:43;19.50;99.90
32660;DHT22;19064;47.912;12.308;2023-07-13T12:29:15;19.50;99.90
32660;DHT22;19064;47.912;12.308;2023-07-13T12:31:46;19.60;99.90
32660;DHT22;19064;47.912;12.308;2023-07-13T12:34:15;19.80;99.90
32660;DHT22;19064;47.912;12.308;2023-07-13T12:36:46;20.30;99.90
32660;DHT22;19064;47.912;12.308;2023-07-13T12:39:17;20.60;99.90
32660;DHT22;19064;47.912;12.308;2023-07-13T12:41:45;20.60;99.90
32660;DHT22;19064;47.912;12.308;2023-07-13T12:44:14;20.30;99.90
32660;DHT22;19064;47.912;12.308;2023-07-13T12:47:05;20.10;99.90
32660;DHT22;19064;47.912;12.308;2023-07-13T12:49:41;20.00;99.90
32660;DHT22;19064;47.912;12.308;2023-07-13T12:52:16;19.90;99.90
32660;DHT22;19064;47.912;12.308;2023-07-13T12:54:53;20.30;99.90
32660;DHT22;19064;47.912;12.308;2023-07-13T12:57:22;20.50;99.90
32660;DHT22;19064;47.912;12.308;2023-07-13T12:59:52;20.30;99.90
32660;DHT22;19064;47.912;12.308;2023-07-13T13:02:28;20.50;99.90
32660;DHT22;19064;47.912;12.308;2023-07-13T13:04:56;20.30;99.90
32660;DHT22;19064;47.912;12.308;2023-07-13T13:07:24;20.10;99.90
32660;DHT22;19064;47.912;12.308;2023-07-13T13:09:51;20.00;99.90
32660;DHT22;19064;47.912;12.308;2023-07-13T13:12:19;20.00;99.90
32660;DHT22;19064;47.912;12.308;2023-07-13T13:14:45;20.10;99.90
32660;DHT22;19064;47.912;12.308;2023-07-13T13:17:18;20.20;99.90
32660;DHT22;19064;47.912;12.308;2023-07-13T13:19:47;20.50;99.90
32660;DHT22;19064;47.912;12.308;2023-07-13T13:22:15;20.70;99.90
32660;DHT22;19064;47.912;12.308;2023-07-13T13:24:42;20.90;99.90
32660;DHT22;19064;47.912;12.308;2023-07-13T13:27:15;20.80;99.90
32660;DHT22;19064;47.912;12.308;2023-07-13T13:29:43;21.00;99.90
32660;DHT22;19064;47.912;12.308;2023-07-13T13:32:12;20.90;99.90
32660;DHT22;19064;47.912;12.308;2023-07-13T13:34:40;20.90;99.90
32660;DHT22;19064;47.912;12.308;2023-07-13T13:37:17;20.80;99.90
32660;DHT22;19064;47.912;12.308;2023-07-13T13:39:45;20.80;99.90
32660;DHT22;19064;47.912;12.308;2023-07-13T13:42:12;20.80;99.90
32660;DHT22;19064;47.912;12.308;2023-07-13T13:44:39;20.90;99.90
32660;DHT22;19064;47.912;12.308;2023-07-13T13:47:18;21.10;99.90
32660;DHT22;19064;47.912;12.308;2023-07-13T13:49:46;21.10;99.90
32660;DHT22;19064;47.912;12.308;2023-07-13T13:52:14;21.20;99.90
32660;DHT22;19064;47.912;12.308;2023-07-13T13:54:41;21.40;99.90
32660;DHT22;19064;47.912;12.308;2023-07-13T13:57:08;21.60;99.90
32660;DHT22;19064;47.912;12.308;2023-07-13T13:59:37;21.50;99.90
32660;DHT22;19064;47.912;12.308;2023-07-13T14:02:19;21.60;99.90
32660;DHT22;19064;47.912;12.308;2023-07-13T14:04:57;21.60;99.90
32660;DHT22;19064;47.912;12.308;2023-07-13T14:07:26;21.50;99.90
32660;DHT22;19064;47.912;12.308;2023-07-13T14:09:57;21.50;99.90
32660;DHT22;19064;47.912;12.308;2023-07-13T14:12:24;21.60;99.90
32660;DHT22;19064;47.912;12.308;2023-07-13T14:14:53;21.60;99.90
32660;DHT22;19064;47.912;12.308;2023-07-13T14:17:22;21.90;99.90
32660;DHT22;19064;47.912;12.308;2023-07-13T14:19:50;22.00;99.90
32660;DHT22;19064;47.912;12.308;2023-07-13T14:22:22;21.90;99.90
32660;DHT22;19064;47.912;12.308;2023-07-13T14:24:51;21.70;99.90
32660;DHT22;19064;47.912;12.308;2023-07-13T14:27:18;21.70;99.90
32660;DHT22;19064;47.912;12.308;2023-07-13T14:29:45;21.90;99.90
32660;DHT22;19064;47.912;12.308;2023-07-13T14:32:12;22.00;99.90
32660;DHT22;19064;47.912;12.308;2023-07-13T14:34:39;22.20;99.90
32660;DHT22;19064;47.912;12.308;2023-07-13T14:37:12;22.30;99.90
32660;DHT22;19064;47.912;12.308;2023-07-13T14:39:41;22.20;99.90
32660;DHT22;19064;47.912;12.308;2023-07-13T14:42:10;22.10;99.90
32660;DHT22;19064;47.912;12.308;2023-07-13T14:44:38;22.10;99.90
32660;DHT22;19064;47.912;12.308;2023-07-13T14:47:06;22.30;99.90
32660;DHT22;19064;47.912;12.308;2023-07-13T14:49:35;22.40;99.90
32660;DHT22;19064;47.912;12.308;2023-07-13T14:52:08;22.50;99.90
32660;DHT22;19064;47.912;12.308;2023-07-13T14:54:37;22.50;99.90
32660;DHT22;19064;47.912;12.308;2023-07-13T14:57:10;22.60;99.90
32660;DHT22;19064;47.912;12.308;2023-07-13T14:59:38;22.30;99.90
32660;DHT22;19064;47.912;12.308;2023-07-13T15:02:14;22.30;99.90
32660;DHT22;19064;47.912;12.308;2023-07-13T15:04:42;22.40;99.90
32660;DHT22;19064;47.912;12.308;2023-07-13T15:07:10;22.40;99.90
32660;DHT22;19064;47.912;12.308;2023-07-13T15:09:37;22.60;99.90
32660;DHT22;19064;47.912;12.308;2023-07-13T15:12:05;22.50;99.90
32660;DHT22;19064;47.912;12.308;2023-07-13T15:14:33;22.30;99.90
32660;DHT22;19064;47.912;12.308;2023-07-13T15:17:00;22.30;99.90
32660;DHT22;19064;47.912;12.308;2023-07-13T15:19:27;22.60;99.90
32660;DHT22;19064;47.912;12.308;2023-07-13T15:21:54;22.80;99.90
32660;DHT22;19064;47.912;12.308;2023-07-13T15:24:23;22.80;99.90
32660;DHT22;19064;47.912;12.308;2023-07-13T15:26:50;22.80;99.90
32660;DHT22;19064;47.912;12.308;2023-07-13T15:29:18;22.50;99.90
32660;DHT22;19064;47.912;12.308;2023-07-13T15:31:46;22.50;99.90
32660;DHT22;19064;47.912;12.308;2023-07-13T15:34:15;22.10;99.90
32660;DHT22;19064;47.912;12.308;2023-07-13T15:36:42;22.20;99.90
32660;DHT22;19064;47.912;12.308;2023-07-13T15:39:14;22.20;99.90
32660;DHT22;19064;47.912;12.308;2023-07-13T15:41:41;22.40;99.90